Time;durP1;ratioP1;P1;durP2;ratioP2;P2;SDS_P1;SDS_P2;PMS_P1;PMS_P2;Temp;Humidity;BMP_temperature;BMP_pressure;BME280_temperature;BME280_humidity;BME280_pressure;Samples;Min_cycle;Max_cycle;Signal;HPM_P1;HPM_P2
2021/09/06 00:00:56;;;;;;;20.50;4.25;;;;;;;5.54;69.62;99969.71;2211908;79;21512;-71
2021/09/06 00:03:58;;;;;;;18.57;4.55;;;;;;;5.48;69.67;99971.16;2211838;79;20990;-72
2021/09/06 00:06:59;;;;;;;16.15;4.35;;;;;;;5.37;69.59;99971.37;2211908;79;21543;-71
2021/09/06 00:10:00;;;;;;;19.27;4.83;;;;;;;5.43;69.58;99977.77;2212022;79;21076;-68
2021/09/06 00:13:02;;;;;;;18.02;4.40;;;;;;;5.42;69.71;99976.05;2211861;79;21024;-67
2021/09/06 00:16:03;;;;;;;15.43;4.05;;;;;;;5.36;69.75;99980.09;2212035;79;20992;-72
2021/09/06 00:19:05;;;;;;;15.88;3.60;;;;;;;5.26;69.68;99978.13;2212007;79;21041;-71
2021/09/06 00:22:06;;;;;;;14.53;3.90;;;;;;;5.29;69.96;99974.15;2212038;79;21381;-73
2021/09/06 00:25:07;;;;;;;15.93;4.05;;;;;;;5.24;69.85;99982.48;2212041;79;21063;-72
2021/09/06 00:28:09;;;;;;;15.20;3.90;;;;;;;5.20;69.74;99982.12;2212077;79;21599;-73
2021/09/06 00:31:12;;;;;;;17.52;4.30;;;;;;;5.17;69.99;99980.47;2212064;80;21528;-73
2021/09/06 00:34:14;;;;;;;14.78;4.00;;;;;;;5.24;69.87;99976.43;2201689;80;21013;-73
2021/09/06 00:37:15;;;;;;;16.48;4.00;;;;;;;5.17;70.06;99979.17;2212180;80;21031;-71
2021/09/06 00:40:16;;;;;;;17.25;4.08;;;;;;;5.14;70.11;99978.36;2212155;80;21539;-73
2021/09/06 00:43:18;;;;;;;17.90;4.15;;;;;;;5.13;70.16;99979.23;2211888;80;21000;-73
2021/09/06 00:46:19;;;;;;;17.62;4.40;;;;;;;5.08;69.75;99975.44;2212163;79;20925;-73
2021/09/06 00:49:21;;;;;;;14.58;4.25;;;;;;;5.02;69.84;99979.47;2212234;79;20993;-72
2021/09/06 00:52:22;;;;;;;16.75;4.62;;;;;;;4.98;69.92;99978.66;2212200;79;20969;-73
2021/09/06 00:55:24;;;;;;;14.43;3.75;;;;;;;4.97;70.19;99979.56;2212135;79;20981;-74
2021/09/06 00:58:25;;;;;;;19.62;4.35;;;;;;;5.05;70.27;99979.41;2212205;79;20989;-73
2021/09/06 01:01:27;;;;;;;20.60;4.60;;;;;;;5.00;70.16;99978.20;2211804;79;21595;-73
2021/09/06 01:04:28;;;;;;;43.13;14.47;;;;;;;4.95;70.18;99976.13;2212586;79;20993;-72
2021/09/06 01:07:29;;;;;;;38.83;13.13;;;;;;;4.91;69.94;99970.56;2212182;79;20961;-72
2021/09/06 01:10:31;;;;;;;17.52;4.28;;;;;;;4.91;70.10;99972.32;2212161;79;21555;-73
2021/09/06 01:13:32;;;;;;;18.80;5.00;;;;;;;4.91;70.11;99974.92;2212557;79;21004;-73
2021/09/06 01:16:34;;;;;;;20.92;4.42;;;;;;;4.85;70.23;99978.03;2211933;79;20993;-71
2021/09/06 01:19:35;;;;;;;16.17;4.12;;;;;;;4.82;70.07;99977.25;2212393;79;20958;-72
2021/09/06 01:22:37;;;;;;;20.68;5.50;;;;;;;4.79;69.95;99976.86;2212082;79;20997;-72
2021/09/06 01:25:38;;;;;;;24.45;8.35;;;;;;;4.75;70.00;99974.36;2212270;79;20985;-71
2021/09/06 01:28:40;;;;;;;21.52;5.92;;;;;;;4.78;70.04;99974.30;2212154;79;21028;-72
2021/09/06 01:31:42;;;;;;;17.62;4.80;;;;;;;4.72;69.90;99979.16;2211950;80;21080;-72
2021/09/06 01:34:44;;;;;;;18.90;4.78;;;;;;;4.73;70.17;99974.84;2211956;80;21052;-72
2021/09/06 01:37:45;;;;;;;20.55;5.20;;;;;;;4.78;69.90;99972.99;2212026;79;21071;-72
2021/09/06 01:40:46;;;;;;;17.67;4.12;;;;;;;4.66;69.78;99975.39;2211995;80;21033;-72
2021/09/06 01:43:48;;;;;;;17.82;4.17;;;;;;;4.58;69.85;99977.26;2211620;79;21534;-71
2021/09/06 01:46:49;;;;;;;19.45;4.55;;;;;;;4.52;69.99;99970.42;2212132;79;20965;-72
2021/09/06 01:49:53;;;;;;;17.95;4.83;;;;;;;4.45;69.98;99974.90;2201238;80;20997;-72
2021/09/06 01:52:55;;;;;;;19.20;5.20;;;;;;;4.38;70.28;99975.02;2212097;79;20996;-72
2021/09/06 01:55:56;;;;;;;16.95;4.37;;;;;;;4.38;70.38;99981.51;2212137;79;20988;-71
2021/09/06 01:58:58;;;;;;;18.20;4.55;;;;;;;4.37;70.25;99982.38;2212141;79;21428;-73
2021/09/06 02:01:59;;;;;;;16.07;4.30;;;;;;;4.34;70.38;99983.31;2212108;79;20966;-68
2021/09/06 02:05:00;;;;;;;18.92;4.33;;;;;;;4.34;70.29;99980.72;2212133;79;21516;-72
2021/09/06 02:08:02;;;;;;;17.73;4.12;;;;;;;4.34;70.37;99984.16;2212301;79;20969;-72
2021/09/06 02:11:03;;;;;;;18.10;4.37;;;;;;;4.32;70.47;99984.64;2211996;80;21088;-69
2021/09/06 02:14:06;;;;;;;18.02;4.65;;;;;;;4.29;70.29;99985.12;2211831;79;21037;-72
2021/09/06 02:17:07;;;;;;;17.62;4.42;;;;;;;4.22;70.18;99980.91;2212302;79;21468;-72
2021/09/06 02:20:09;;;;;;;16.52;4.20;;;;;;;4.11;70.48;99985.00;2212344;79;20930;-71
2021/09/06 02:23:10;;;;;;;17.87;4.72;;;;;;;4.03;70.40;99984.25;2212291;79;20986;-71
2021/09/06 02:26:12;;;;;;;19.57;4.47;;;;;;;3.98;70.50;99982.58;2212205;79;21004;-72
2021/09/06 02:29:13;;;;;;;20.20;5.15;;;;;;;3.94;70.52;99979.61;2212248;79;20997;-70
2021/09/06 02:32:15;;;;;;;19.55;5.60;;;;;;;3.90;70.74;99983.58;2212353;79;20985;-71
2021/09/06 02:35:16;;;;;;;22.87;6.60;;;;;;;4.01;71.15;99978.20;2212187;79;21008;-71
2021/09/06 02:38:18;;;;;;;20.72;5.67;;;;;;;4.12;70.78;99981.08;2211920;80;21483;-69
2021/09/06 02:41:21;;;;;;;21.40;5.47;;;;;;;4.15;70.32;99977.55;2200342;80;20974;-71
2021/09/06 02:44:22;;;;;;;20.60;4.62;;;;;;;4.11;69.92;99974.61;2212089;79;20957;-72
2021/09/06 02:47:24;;;;;;;19.00;4.30;;;;;;;4.01;69.88;99980.38;2212093;79;21527;-72
2021/09/06 02:50:26;;;;;;;17.23;4.33;;;;;;;3.91;70.10;99982.71;2211984;79;21080;-70
2021/09/06 02:53:27;;;;;;;19.82;5.08;;;;;;;3.94;70.22;99981.36;2212007;79;21463;-71
2021/09/06 02:56:28;;;;;;;20.50;4.62;;;;;;;3.79;70.51;99989.80;2212142;80;20976;-71
2021/09/06 02:59:30;;;;;;;19.90;4.97;;;;;;;3.72;70.50;99987.30;2211794;79;21535;-70
2021/09/06 03:02:32;;;;;;;17.57;4.45;;;;;;;3.66;70.79;99989.53;2211752;79;21479;-71
2021/09/06 03:05:33;;;;;;;17.07;4.33;;;;;;;3.57;70.42;99984.48;2212014;80;21020;-70
2021/09/06 03:08:35;;;;;;;17.80;4.50;;;;;;;3.50;70.52;99985.00;2212067;79;21095;-72
2021/09/06 03:11:38;;;;;;;18.40;5.10;;;;;;;3.46;70.70;99983.31;2212188;79;21016;-72
2021/09/06 03:14:39;;;;;;;20.52;5.08;;;;;;;3.57;71.28;99976.70;2212044;79;21584;-72
2021/09/06 03:17:41;;;;;;;17.37;4.35;;;;;;;3.76;70.80;99978.13;2218800;79;21000;-72
2021/09/06 03:20:42;;;;;;;18.67;4.15;;;;;;;3.68;70.34;99986.49;2225488;79;21003;-71
2021/09/06 03:23:44;;;;;;;19.85;4.47;;;;;;;3.55;70.45;99979.73;2225517;79;20980;-70
2021/09/06 03:26:46;;;;;;;17.40;4.40;;;;;;;3.46;70.64;99977.71;2225337;79;21055;-70
2021/09/06 03:29:47;;;;;;;16.12;4.28;;;;;;;3.46;70.57;99979.02;2225447;79;21404;-70
2021/09/06 03:32:49;;;;;;;18.57;4.87;;;;;;;3.43;70.74;99980.77;2225395;80;21027;-71
2021/09/06 03:35:51;;;;;;;19.07;4.83;;;;;;;3.41;70.75;99981.25;2225401;80;21510;-71
2021/09/06 03:38:52;;;;;;;16.77;4.17;;;;;;;3.36;70.51;99978.72;2225481;79;20941;-71
2021/09/06 03:41:54;;;;;;;17.97;4.50;;;;;;;3.33;70.73;99980.48;2225511;80;21000;-70
2021/09/06 03:44:55;;;;;;;19.23;4.15;;;;;;;3.31;70.69;99984.39;2225299;79;21059;-71
2021/09/06 03:47:56;;;;;;;24.25;8.28;;;;;;;3.28;70.87;99981.39;2225301;79;21023;-71
2021/09/06 03:50:58;;;;;;;19.55;5.55;;;;;;;3.26;70.80;99983.58;2225300;80;21459;-71
2021/09/06 03:53:59;;;;;;;17.17;4.37;;;;;;;3.23;71.04;99983.62;2225308;79;20976;-72
2021/09/06 03:57:01;;;;;;;17.15;4.55;;;;;;;3.20;70.90;99987.55;2225302;79;21468;-71
2021/09/06 04:00:03;;;;;;;32.35;12.28;;;;;;;3.10;71.18;99985.09;2225250;79;21011;-72
2021/09/06 04:03:05;;;;;;;38.95;20.90;;;;;;;3.10;71.19;99977.73;2225406;80;21523;-71
2021/09/06 04:06:06;;;;;;;30.02;9.95;;;;;;;3.17;71.21;99976.77;2225412;79;20996;-71
2021/09/06 04:09:08;;;;;;;24.65;7.72;;;;;;;3.15;71.09;99973.77;2225403;79;20941;-71
2021/09/06 04:12:10;;;;;;;22.40;7.03;;;;;;;3.18;71.08;99971.17;2225158;80;21485;-70
2021/09/06 04:15:12;;;;;;;20.25;6.30;;;;;;;3.16;70.96;99969.02;2225382;79;21016;-71
2021/09/06 04:18:13;;;;;;;20.08;4.80;;;;;;;3.16;70.96;99969.02;2217313;79;21528;-71
2021/09/06 04:21:15;;;;;;;15.18;4.30;;;;;;;3.19;71.01;99977.63;2211899;79;21079;-70
2021/09/06 04:24:17;;;;;;;18.90;4.10;;;;;;;3.18;70.83;99969.87;2211619;79;21585;-68
2021/09/06 04:27:19;;;;;;;;;;;;;;;3.24;71.15;99974.52;2214462;79;21065;-71
2021/09/06 04:30:21;;;;;;;20.82;5.50;;;;;;;3.37;70.83;99976.97;2212029;80;20091;-69
2021/09/06 04:33:22;;;;;;;20.05;4.83;;;;;;;3.39;71.05;99978.67;2211854;79;20976;-70
2021/09/06 04:36:23;;;;;;;20.08;5.15;;;;;;;3.47;71.02;99978.56;2212041;79;21049;-70
2021/09/06 04:39:25;;;;;;;23.80;5.05;;;;;;;3.55;71.04;99979.73;2211927;79;20945;-70
2021/09/06 04:42:26;;;;;;;20.10;5.00;;;;;;;3.70;71.13;99979.53;2211784;79;21007;-70
2021/09/06 04:45:30;;;;;;;21.07;5.17;;;;;;;3.76;70.71;99981.18;2200220;80;21032;-69
2021/09/06 04:48:32;;;;;;;18.57;5.12;;;;;;;3.85;70.77;99984.08;2211978;79;21072;-72
2021/09/06 04:51:33;;;;;;;16.62;4.47;;;;;;;3.99;70.91;99986.91;2212192;79;21037;-72
2021/09/06 04:54:35;;;;;;;16.10;4.40;;;;;;;4.17;70.68;99988.78;2211853;79;21148;-69
2021/09/06 04:57:36;;;;;;;17.15;4.17;;;;;;;4.34;70.53;99990.66;2211945;80;21037;-72
2021/09/06 05:00:38;;;;;;;16.48;3.98;;;;;;;4.49;70.77;99983.03;2211997;80;20973;-71
2021/09/06 05:03:39;;;;;;;19.95;4.40;;;;;;;4.51;70.66;99990.38;2211973;79;21044;-68
2021/09/06 05:06:41;;;;;;;17.85;3.87;;;;;;;4.61;70.62;99981.97;2212265;80;20969;-72
2021/09/06 05:09:42;;;;;;;15.25;4.40;;;;;;;4.82;71.07;99987.20;2212078;79;21028;-70
2021/09/06 05:12:43;;;;;;;15.00;4.75;;;;;;;4.99;70.74;99990.78;2212045;79;21540;-71
2021/09/06 05:15:45;;;;;;;16.15;3.77;;;;;;;5.28;70.54;99998.44;2212319;79;20991;-71
2021/09/06 05:18:46;;;;;;;27.22;9.40;;;;;;;5.52;70.96;99994.47;2211950;79;21048;-72
2021/09/06 05:21:48;;;;;;;29.12;12.60;;;;;;;5.80;70.47;100000.81;2212080;80;21016;-71
2021/09/06 05:24:54;;;;;;;25.43;10.13;;;;;;;6.05;70.24;99999.39;2211988;79;20981;-71
2021/09/06 05:27:53;;;;;;;31.60;13.35;;;;;;;6.32;70.35;100001.36;2201626;80;20997;-68
2021/09/06 05:30:54;;;;;;;29.82;10.00;;;;;;;6.56;70.53;99998.12;2212271;80;20969;-71
2021/09/06 05:33:56;;;;;;;27.85;9.08;;;;;;;6.83;70.31;99999.61;2212122;79;20996;-71
2021/09/06 05:36:57;;;;;;;31.75;8.78;;;;;;;7.08;70.39;99995.89;2212155;80;21479;-71
2021/09/06 05:39:58;;;;;;;32.10;14.18;;;;;;;7.48;71.04;99992.56;2212162;79;20970;-71
2021/09/06 05:43:00;;;;;;;34.50;13.10;;;;;;;7.86;70.40;99990.56;2212107;79;20996;-71
2021/09/06 05:46:01;;;;;;;44.30;14.78;;;;;;;8.12;69.57;99984.96;2212264;80;20988;-72
2021/09/06 05:49:03;;;;;;;36.65;11.95;;;;;;;8.38;69.64;99988.48;2211850;79;21024;-71
2021/09/06 05:52:04;;;;;;;34.03;11.18;;;;;;;8.55;69.75;99988.80;2212389;79;20937;-70
2021/09/06 05:55:06;;;;;;;23.07;8.08;;;;;;;8.76;69.63;99990.25;2212154;79;21011;-73
2021/09/06 05:58:07;;;;;;;21.43;5.30;;;;;;;9.03;70.10;99993.66;2212225;79;21072;-72
2021/09/06 06:01:09;;;;;;;20.08;5.15;;;;;;;9.38;70.28;99999.38;2212287;79;21257;-71
2021/09/06 06:04:10;;;;;;;17.32;4.00;;;;;;;9.80;69.66;99996.02;2211939;79;21587;-68
2021/09/06 06:07:12;;;;;;;16.40;4.10;;;;;;;10.17;69.64;99992.38;2212044;79;21093;-68
2021/09/06 06:10:13;;;;;;;15.20;3.25;;;;;;;10.60;68.69;99992.40;2212026;79;21546;-70
2021/09/06 06:13:15;;;;;;;14.45;3.42;;;;;;;11.00;68.19;99993.30;2212103;79;21106;-68
2021/09/06 06:16:16;;;;;;;16.30;3.70;;;;;;;11.33;67.16;99991.39;2211694;79;21076;-69
2021/09/06 06:19:17;;;;;;;16.27;3.53;;;;;;;11.63;66.64;99992.23;2212204;79;21066;-68
2021/09/06 06:22:19;;;;;;;12.13;3.17;;;;;;;11.98;66.85;99989.72;2212218;79;21029;-69
2021/09/06 06:25:20;;;;;;;13.30;3.10;;;;;;;12.35;66.29;99987.45;2212011;79;21590;-69
2021/09/06 06:28:22;;;;;;;14.28;3.37;;;;;;;12.55;63.91;99986.92;2212046;80;21068;-72
2021/09/06 06:31:23;;;;;;;13.68;3.40;;;;;;;12.67;65.64;99987.63;2212280;79;21041;-67
2021/09/06 06:34:24;;;;;;;12.95;3.10;;;;;;;13.11;65.18;99990.17;2212232;79;21630;-67
2021/09/06 06:37:26;;;;;;;12.93;3.20;;;;;;;13.47;64.32;99991.31;2212255;80;21045;-67
2021/09/06 06:40:27;;;;;;;10.67;3.40;;;;;;;13.76;63.98;99994.13;2212227;79;21050;-69
2021/09/06 06:43:29;;;;;;;13.15;3.75;;;;;;;13.98;63.22;99998.23;2212275;79;21013;-71
2021/09/06 06:46:30;;;;;;;13.90;3.17;;;;;;;14.26;62.74;100007.20;2212257;79;21053;-70
2021/09/06 06:49:32;;;;;;;9.17;2.77;;;;;;;14.50;62.41;100007.58;2212327;80;21052;-70
2021/09/06 06:52:33;;;;;;;11.90;3.00;;;;;;;14.60;61.40;100007.41;2212222;79;21033;-67
2021/09/06 06:55:35;;;;;;;12.40;3.23;;;;;;;14.70;61.51;100009.07;2212234;79;21588;-68
2021/09/06 06:58:36;;;;;;;9.87;3.00;;;;;;;14.93;61.69;100009.02;2212216;79;21087;-67
2021/09/06 07:01:37;;;;;;;12.17;2.97;;;;;;;15.22;60.90;100016.95;2212199;79;21312;-68
2021/09/06 07:04:39;;;;;;;13.53;3.60;;;;;;;15.46;61.35;100015.91;2212148;79;21052;-67
2021/09/06 07:07:41;;;;;;;11.68;3.27;;;;;;;15.72;59.92;100016.08;2212147;79;21029;-67
2021/09/06 07:10:42;;;;;;;10.10;2.97;;;;;;;15.95;60.16;100023.89;2212324;79;21059;-66
2021/09/06 07:13:44;;;;;;;12.07;2.80;;;;;;;16.19;59.35;100028.07;2212194;79;21023;-69
2021/09/06 07:16:45;;;;;;;12.20;3.20;;;;;;;16.33;58.86;100017.04;2212211;79;21595;-70
2021/09/06 07:19:46;;;;;;;11.93;3.10;;;;;;;16.54;58.70;100014.28;2223087;79;20988;-69
2021/09/06 07:22:48;;;;;;;10.90;2.90;;;;;;;16.65;56.64;100014.03;2225453;79;21031;-67
2021/09/06 07:25:49;;;;;;;11.20;3.20;;;;;;;16.71;58.42;100012.31;2225665;79;21015;-67
2021/09/06 07:28:51;;;;;;;9.20;2.72;;;;;;;17.06;58.72;100014.38;2225432;79;20960;-68
2021/09/06 07:31:53;;;;;;;11.45;2.95;;;;;;;17.28;55.87;100017.23;2225543;79;20952;-67
2021/09/06 07:34:55;;;;;;;11.45;3.20;;;;;;;17.40;56.93;100020.81;2225326;79;20992;-71
2021/09/06 07:37:56;;;;;;;9.20;2.80;;;;;;;17.52;53.54;100020.42;2225617;79;21067;-67
2021/09/06 07:40:57;;;;;;;9.85;2.92;;;;;;;17.58;55.10;100022.63;2225463;79;20995;-69
2021/09/06 07:43:59;;;;;;;8.70;2.77;;;;;;;17.84;55.47;100019.91;2225655;79;20988;-72
2021/09/06 07:47:00;;;;;;;10.80;3.30;;;;;;;18.12;55.19;100017.45;2225543;80;21024;-68
2021/09/06 07:50:02;;;;;;;9.07;2.63;;;;;;;18.36;54.58;100017.94;2225563;79;21629;-71
2021/09/06 07:53:03;;;;;;;8.57;2.60;;;;;;;18.51;53.64;100026.56;2225648;79;21166;-70
2021/09/06 07:56:05;;;;;;;9.58;2.72;;;;;;;18.64;52.92;100022.50;2225087;80;21168;-70
2021/09/06 07:59:06;;;;;;;12.75;3.17;;;;;;;18.66;51.90;100016.11;2225552;79;20977;-67
2021/09/06 08:02:08;;;;;;;11.90;3.27;;;;;;;18.68;52.41;100028.78;2225035;79;21000;-68
2021/09/06 08:05:09;;;;;;;10.85;2.40;;;;;;;18.92;53.13;100021.28;2225435;79;21518;-67
2021/09/06 08:08:11;;;;;;;11.25;3.00;;;;;;;19.14;50.85;100024.44;2225350;80;21054;-68
2021/09/06 08:11:13;;;;;;;;;;;;;;;19.22;51.41;100030.47;2227987;79;21526;-67
2021/09/06 08:14:14;;;;;;;9.18;2.70;;;;;;;19.47;51.02;100028.08;2225543;80;20107;-68
2021/09/06 08:17:15;;;;;;;6.83;2.30;;;;;;;19.65;49.49;100024.45;2225437;79;21522;-68
2021/09/06 08:20:17;;;;;;;9.78;2.65;;;;;;;19.77;50.08;100025.73;2212998;79;21040;-69
2021/09/06 08:23:18;;;;;;;6.30;2.15;;;;;;;19.86;48.65;100031.20;2211978;79;21587;-67
2021/09/06 08:26:21;;;;;;;6.10;2.30;;;;;;;19.88;47.66;100030.61;2212168;79;21029;-68
2021/09/06 08:29:23;;;;;;;9.18;2.20;;;;;;;19.86;47.81;100033.86;2211918;79;21041;-69
2021/09/06 08:32:24;;;;;;;5.60;2.00;;;;;;;19.89;44.21;100028.78;2212139;79;21000;-67
2021/09/06 08:35:26;;;;;;;6.97;1.92;;;;;;;19.80;46.05;100036.20;2212021;79;21088;-67
2021/09/06 08:38:27;;;;;;;5.83;2.08;;;;;;;19.90;46.56;100035.81;2212339;79;20969;-67
2021/09/06 08:41:29;;;;;;;5.97;2.20;;;;;;;20.13;45.74;100039.26;2212223;79;21024;-66
2021/09/06 08:44:30;;;;;;;5.70;2.10;;;;;;;20.28;44.99;100040.30;2212139;80;21535;-69
2021/09/06 08:47:32;;;;;;;8.48;2.30;;;;;;;20.35;44.30;100034.33;2212185;80;21064;-67
2021/09/06 08:50:34;;;;;;;7.08;2.50;;;;;;;20.43;43.81;100041.20;2212183;79;21556;-68
2021/09/06 08:53:35;;;;;;;8.13;2.60;;;;;;;20.46;42.50;100035.25;2212151;79;21048;-68
2021/09/06 08:56:38;;;;;;;7.40;2.27;;;;;;;20.49;42.74;100027.03;2212164;79;21516;-67
2021/09/06 08:59:41;;;;;;;5.28;1.98;;;;;;;20.52;41.24;100034.76;2212060;79;21076;-68
2021/09/06 09:02:42;;;;;;;5.65;2.05;;;;;;;20.51;42.87;100030.39;2211732;79;21097;-67
2021/09/06 09:05:44;;;;;;;6.50;2.25;;;;;;;20.69;41.46;100028.05;2212298;79;21007;-71
2021/09/06 09:08:46;;;;;;;8.28;2.75;;;;;;;20.69;41.89;100022.22;2212419;79;20993;-70
2021/09/06 09:11:47;;;;;;;8.88;2.40;;;;;;;20.79;42.91;100018.76;2212110;79;21016;-67
2021/09/06 09:14:48;;;;;;;6.17;1.87;;;;;;;20.88;41.92;100006.83;2212171;79;21788;-66
2021/09/06 09:17:50;;;;;;;6.95;2.00;;;;;;;21.02;41.56;100010.98;2212088;79;21069;-68
2021/09/06 09:20:51;;;;;;;8.78;1.95;;;;;;;21.05;40.01;100019.22;2212203;79;21535;-71
2021/09/06 09:23:53;;;;;;;9.65;2.52;;;;;;;21.09;40.69;100008.15;2212102;79;21067;-67
2021/09/06 09:26:55;;;;;;;6.22;2.10;;;;;;;21.25;41.22;100008.16;2212012;80;21781;-68
2021/09/06 09:29:56;;;;;;;7.47;2.08;;;;;;;21.46;40.74;100008.08;2212071;79;21084;-66
2021/09/06 09:32:58;;;;;;;6.70;2.20;;;;;;;21.52;40.37;100012.93;2212058;80;21075;-71
2021/09/06 09:35:59;;;;;;;8.83;2.70;;;;;;;21.44;39.85;100020.23;2212381;79;20972;-72
2021/09/06 09:39:01;;;;;;;6.62;2.30;;;;;;;21.54;38.71;100013.63;2212120;79;20934;-68
2021/09/06 09:42:02;;;;;;;6.37;2.05;;;;;;;21.52;39.46;100015.60;2212093;79;21573;-67
2021/09/06 09:45:03;;;;;;;10.00;2.30;;;;;;;21.76;39.69;100007.21;2212128;79;21058;-67
2021/09/06 09:48:05;;;;;;;9.55;2.40;;;;;;;21.73;38.14;100007.99;2212138;79;21567;-67
2021/09/06 09:51:06;;;;;;;7.78;2.40;;;;;;;21.71;39.09;100009.97;2211943;79;21016;-68
2021/09/06 09:54:08;;;;;;;10.48;2.47;;;;;;;21.79;38.92;100004.30;2212108;79;21017;-71
2021/09/06 09:57:09;;;;;;;10.75;3.15;;;;;;;21.96;38.27;99999.25;2212188;79;21008;-69
2021/09/06 10:00:14;;;;;;;7.67;2.22;;;;;;;22.00;39.16;99992.65;2211766;80;21560;-67
2021/09/06 10:03:15;;;;;;;8.18;2.30;;;;;;;22.13;39.11;99997.22;2201527;80;21723;-67
2021/09/06 10:06:16;;;;;;;9.93;2.62;;;;;;;22.11;36.96;99995.66;2212276;79;21012;-68
2021/09/06 10:09:17;;;;;;;7.22;2.12;;;;;;;22.20;38.63;99989.50;2212264;79;21081;-68
2021/09/06 10:12:19;;;;;;;6.25;2.02;;;;;;;22.40;36.99;99982.86;2212350;79;20965;-68
2021/09/06 10:15:20;;;;;;;5.85;2.30;;;;;;;22.33;36.44;99987.92;2212269;79;20980;-71
2021/09/06 10:18:22;;;;;;;7.15;2.27;;;;;;;22.38;37.27;99988.82;2212241;79;21075;-71
2021/09/06 10:21:23;;;;;;;6.83;2.30;;;;;;;22.34;36.61;99984.27;2212138;80;21013;-68
2021/09/06 10:24:26;;;;;;;10.50;2.33;;;;;;;22.43;37.49;99983.41;2211842;80;21622;-68
2021/09/06 10:27:28;;;;;;;7.30;2.20;;;;;;;22.49;35.90;99978.81;2211985;79;21536;-70
2021/09/06 10:30:30;;;;;;;;;;;;;;;22.55;37.01;99978.73;2214610;80;21056;-66
2021/09/06 10:33:31;;;;;;;6.50;2.30;;;;;;;22.41;36.54;99972.02;2212204;80;20393;-68
2021/09/06 10:36:33;;;;;;;6.80;2.30;;;;;;;22.40;35.75;99970.33;2212120;79;21035;-68
2021/09/06 10:39:34;;;;;;;8.13;2.35;;;;;;;22.33;37.56;99974.55;2212122;79;21033;-70
2021/09/06 10:42:36;;;;;;;10.10;2.47;;;;;;;22.60;36.63;99968.47;2212177;79;21076;-68
2021/09/06 10:45:37;;;;;;;9.18;2.50;;;;;;;22.76;36.02;99961.69;2212127;79;21064;-67
2021/09/06 10:48:38;;;;;;;10.05;2.87;;;;;;;22.81;36.00;99968.77;2212196;80;21029;-68
2021/09/06 10:51:40;;;;;;;7.58;2.20;;;;;;;22.88;35.90;99948.98;2211984;79;21088;-68
2021/09/06 10:54:41;;;;;;;7.72;2.10;;;;;;;22.83;34.88;99958.28;2212104;79;21508;-69
2021/09/06 10:57:43;;;;;;;9.50;2.42;;;;;;;22.73;35.12;99958.80;2212163;79;21036;-66
2021/09/06 11:00:45;;;;;;;8.98;2.50;;;;;;;22.55;33.31;99960.03;2211574;80;21638;-69
2021/09/06 11:03:47;;;;;;;7.05;2.20;;;;;;;22.63;35.77;99960.16;2212140;79;21346;-66
2021/09/06 11:06:48;;;;;;;8.13;2.20;;;;;;;22.80;35.75;99954.56;2211951;79;21540;-67
2021/09/06 11:09:50;;;;;;;5.72;2.20;;;;;;;23.05;34.50;99964.27;2212217;79;21048;-66
2021/09/06 11:12:52;;;;;;;7.97;2.15;;;;;;;23.09;34.95;99956.30;2212085;79;21060;-70
2021/09/06 11:15:54;;;;;;;11.05;2.22;;;;;;;23.31;35.38;99953.75;2211953;79;21033;-68
2021/09/06 11:18:55;;;;;;;7.65;2.30;;;;;;;23.57;34.44;99956.23;2211949;79;21621;-69
2021/09/06 11:21:57;;;;;;;7.60;2.17;;;;;;;23.68;34.15;99955.52;2212157;79;21049;-66
2021/09/06 11:24:59;;;;;;;10.05;2.72;;;;;;;23.85;33.52;99948.50;2211582;79;21585;-69
2021/09/06 11:28:00;;;;;;;8.30;2.75;;;;;;;23.84;34.17;99948.66;2212214;79;21052;-71
2021/09/06 11:31:02;;;;;;;8.33;2.37;;;;;;;23.84;33.36;99948.66;2212064;79;20945;-69
2021/09/06 11:34:04;;;;;;;8.68;2.20;;;;;;;23.42;32.70;99938.47;2212174;79;21025;-70
2021/09/06 11:37:07;;;;;;;9.20;2.37;;;;;;;23.37;32.92;99937.59;2211838;80;21559;-68
2021/09/06 11:40:09;;;;;;;8.90;2.70;;;;;;;23.41;33.93;99937.64;2211899;79;21021;-70
2021/09/06 11:43:10;;;;;;;7.28;2.60;;;;;;;23.55;33.83;99928.75;2212002;79;21532;-67
2021/09/06 11:46:11;;;;;;;7.03;2.30;;;;;;;23.60;33.60;99921.95;2212032;80;21012;-71
2021/09/06 11:49:13;;;;;;;8.15;2.15;;;;;;;23.71;33.61;99918.22;2212004;79;21076;-72
2021/09/06 11:52:17;;;;;;;6.83;2.27;;;;;;;23.93;33.80;99918.80;2212010;79;21503;-69
2021/09/06 11:55:18;;;;;;;9.03;2.20;;;;;;;23.98;32.76;99922.70;2201667;80;21024;-72
2021/09/06 11:58:19;;;;;;;9.65;2.50;;;;;;;24.03;32.51;99918.21;2212185;79;21081;-71
2021/09/06 12:01:21;;;;;;;5.42;2.17;;;;;;;24.03;32.60;99915.05;2212149;80;21064;-71
2021/09/06 12:04:22;;;;;;;6.35;2.40;;;;;;;24.18;31.54;99915.33;2212117;79;21607;-72
2021/09/06 12:07:24;;;;;;;8.08;2.47;;;;;;;23.95;33.35;99914.97;2212154;80;21041;-69
2021/09/06 12:10:25;;;;;;;10.13;2.45;;;;;;;24.01;32.67;99913.52;2212262;79;21032;-69
2021/09/06 12:13:28;;;;;;;7.55;2.42;;;;;;;23.93;32.21;99918.29;2212600;79;20953;-66
2021/09/06 12:16:30;;;;;;;9.68;2.50;;;;;;;24.06;32.51;99912.54;2212204;79;21064;-69
2021/09/06 12:19:31;;;;;;;9.13;2.05;;;;;;;24.15;31.56;99904.92;2212194;79;20988;-67
2021/09/06 12:22:34;;;;;;;6.25;2.15;;;;;;;24.07;31.84;99911.55;2212199;79;21540;-69
2021/09/06 12:25:36;;;;;;;6.95;2.45;;;;;;;23.96;31.84;99905.09;2212196;79;21032;-68
2021/09/06 12:28:37;;;;;;;10.38;2.37;;;;;;;24.13;32.04;99902.05;2212421;79;20972;-69
2021/09/06 12:31:38;;;;;;;9.65;2.70;;;;;;;24.28;32.71;99900.50;2212268;79;20941;-69
2021/09/06 12:34:40;;;;;;;10.18;2.60;;;;;;;24.26;31.75;99892.27;2212332;79;21452;-70
2021/09/06 12:37:41;;;;;;;10.13;2.62;;;;;;;24.24;32.59;99893.77;2212377;79;20981;-67
2021/09/06 12:40:43;;;;;;;9.90;2.30;;;;;;;24.44;31.87;99893.55;2212327;80;21480;-71
2021/09/06 12:43:44;;;;;;;7.75;2.30;;;;;;;24.50;32.41;99892.95;2212258;79;21020;-67
2021/09/06 12:46:46;;;;;;;9.90;2.50;;;;;;;24.60;32.00;99887.00;2212374;79;21050;-71
2021/09/06 12:49:47;;;;;;;8.08;2.45;;;;;;;24.64;30.34;99885.69;2212334;80;20968;-71
2021/09/06 12:52:48;;;;;;;8.73;2.65;;;;;;;24.45;31.23;99880.02;2212444;79;20939;-69
2021/09/06 12:55:50;;;;;;;10.15;2.62;;;;;;;24.54;31.35;99886.27;2212355;79;21005;-69
2021/09/06 12:58:52;;;;;;;7.33;2.30;;;;;;;24.66;30.81;99874.80;2212325;79;21444;-73
2021/09/06 13:01:54;;;;;;;5.70;2.15;;;;;;;24.77;31.43;99881.23;2211863;79;21068;-71
2021/09/06 13:04:56;;;;;;;6.58;2.27;;;;;;;24.67;29.83;99871.13;2212299;79;21009;-71
2021/09/06 13:07:58;;;;;;;6.37;2.30;;;;;;;24.37;30.62;99869.23;2211958;80;21052;-69
2021/09/06 13:10:59;;;;;;;5.97;2.22;;;;;;;24.51;29.82;99875.84;2212174;79;21051;-70
2021/09/06 13:14:04;;;;;;;10.85;2.58;;;;;;;24.56;29.37;99873.02;2212333;79;20977;-71
2021/09/06 13:17:04;;;;;;;10.15;2.58;;;;;;;24.32;28.15;99873.73;2201824;80;21004;-68
2021/09/06 13:20:05;;;;;;;9.63;2.65;;;;;;;24.13;29.85;99869.39;2212296;79;21885;-69
2021/09/06 13:23:09;;;;;;;8.20;2.50;;;;;;;24.51;31.29;99865.97;2212193;80;20996;-70
2021/09/06 13:26:13;;;;;;;9.68;2.70;;;;;;;24.72;29.61;99860.26;2201811;80;20977;-67
2021/09/06 13:29:13;;;;;;;9.40;2.98;;;;;;;24.87;31.04;99868.53;2201697;80;20973;-67
2021/09/06 13:32:15;;;;;;;11.95;3.15;;;;;;;24.94;30.32;99863.37;2212273;79;21059;-69
2021/09/06 13:35:16;;;;;;;10.93;2.77;;;;;;;25.01;30.34;99863.55;2212344;79;20946;-67
2021/09/06 13:38:17;;;;;;;8.88;2.50;;;;;;;25.08;30.00;99857.39;2212237;79;21561;-67
2021/09/06 13:41:19;;;;;;;8.85;2.60;;;;;;;25.15;31.21;99857.55;2212292;79;21029;-66
2021/09/06 13:44:20;;;;;;;8.55;2.30;;;;;;;25.33;30.76;99860.65;2212284;79;21479;-67
2021/09/06 13:47:23;;;;;;;7.33;2.42;;;;;;;25.35;30.33;99853.28;2212094;80;21043;-68
2021/09/06 13:50:24;;;;;;;9.18;2.58;;;;;;;25.33;30.60;99849.91;2212171;79;21420;-67
2021/09/06 13:53:25;;;;;;;10.13;2.60;;;;;;;24.90;28.48;99851.27;2212105;79;21045;-66
2021/09/06 13:56:27;;;;;;;8.15;2.40;;;;;;;24.81;30.47;99850.88;2212149;79;21021;-69
2021/09/06 13:59:28;;;;;;;10.03;2.58;;;;;;;25.00;30.87;99852.49;2212263;79;21013;-70
2021/09/06 14:02:30;;;;;;;9.00;2.40;;;;;;;25.00;30.83;99853.84;2212052;80;21076;-70
2021/09/06 14:05:32;;;;;;;16.07;3.47;;;;;;;24.97;30.55;99850.97;2211974;79;21084;-68
2021/09/06 14:08:33;;;;;;;7.97;2.60;;;;;;;24.52;29.60;99848.89;2211761;80;21034;-67